createdAt,value
2019-04-03T00:01:41.374Z,10.16
2019-04-03T00:04:47.088Z,10.07
2019-04-03T00:07:52.760Z,10.16
2019-04-03T00:10:58.506Z,9.79
2019-04-03T00:14:04.404Z,10.20
2019-04-03T00:17:10.100Z,9.87
2019-04-03T00:20:18.001Z,9.63
2019-04-03T00:23:23.425Z,10.16
2019-04-03T00:26:30.786Z,9.78
2019-04-03T00:29:36.517Z,9.69
2019-04-03T00:32:42.242Z,10.03
2019-04-03T00:35:48.035Z,10.44
2019-04-03T00:38:54.274Z,10.38
2019-04-03T00:42:00.519Z,10.04
2019-04-03T00:45:07.339Z,10.27
2019-04-03T00:48:13.097Z,10.10
2019-04-03T00:51:18.858Z,10.08
2019-04-03T00:54:24.764Z,9.97
2019-04-03T00:57:31.997Z,10.37
2019-04-03T01:00:37.655Z,10.23
2019-04-03T01:03:43.699Z,10.31
2019-04-03T01:06:49.495Z,9.99
2019-04-03T01:09:56.249Z,10.29
2019-04-03T01:13:02.244Z,10.47
2019-04-03T01:16:08.236Z,10.29
2019-04-03T01:19:13.953Z,10.19
2019-04-03T01:22:19.673Z,10.30
2019-04-03T01:25:25.562Z,10.05
2019-04-03T01:28:31.309Z,9.05
2019-04-03T01:31:37.223Z,9.05
2019-04-03T01:34:42.954Z,9.64
2019-04-03T01:37:50.171Z,9.89
2019-04-03T01:40:55.970Z,9.56
2019-04-03T01:44:01.626Z,9.72
2019-04-03T01:47:07.335Z,9.41
2019-04-03T01:50:13.265Z,9.67
2019-04-03T01:53:18.986Z,9.38
2019-04-03T01:56:24.828Z,9.45
2019-04-03T01:59:30.601Z,9.49
2019-04-03T02:02:38.196Z,9.73
2019-04-03T02:05:44.151Z,9.37
2019-04-03T02:08:49.987Z,9.03
2019-04-03T02:11:55.853Z,9.11
2019-04-03T02:15:01.977Z,9.52
2019-04-03T02:18:08.119Z,9.90
2019-04-03T02:21:13.835Z,9.94
2019-04-03T02:24:19.601Z,9.88
2019-04-03T02:27:25.327Z,9.73
2019-04-03T02:30:31.000Z,9.38
2019-04-03T02:33:36.688Z,9.83
2019-04-03T02:36:44.264Z,9.84
2019-04-03T02:39:49.762Z,9.44
2019-04-03T02:42:55.703Z,9.80
2019-04-03T02:46:01.390Z,9.84
2019-04-03T02:49:10.228Z,9.97
2019-04-03T02:52:14.800Z,10.23
2019-04-03T02:55:20.488Z,10.54
2019-04-03T02:58:26.256Z,10.50
2019-04-03T03:01:31.935Z,10.81
2019-04-03T03:04:37.714Z,10.93
2019-04-03T03:07:44.670Z,10.65
2019-04-03T03:10:51.828Z,10.23
2019-04-03T03:13:58.062Z,10.62
2019-04-03T03:17:04.474Z,10.87
2019-04-03T03:20:11.016Z,10.94
2019-04-03T03:23:16.906Z,10.94
2019-04-03T03:26:24.274Z,10.87
2019-04-03T03:29:30.410Z,10.79
2019-04-03T03:32:37.614Z,10.88
2019-04-03T03:35:46.715Z,10.80
2019-04-03T03:38:51.717Z,10.93
2019-04-03T03:41:58.784Z,10.97
2019-04-03T03:45:05.997Z,10.77
2019-04-03T03:48:12.162Z,11.01
2019-04-03T03:51:19.728Z,11.07
2019-04-03T03:54:26.527Z,11.01
2019-04-03T03:57:33.518Z,10.58
2019-04-03T04:00:39.803Z,10.88
2019-04-03T04:03:46.235Z,10.80
2019-04-03T04:06:52.040Z,10.85
2019-04-03T04:09:57.881Z,10.78
2019-04-03T04:13:03.778Z,10.82
2019-04-03T04:16:09.562Z,10.64
2019-04-03T04:19:15.664Z,10.52
2019-04-03T04:22:24.488Z,10.53
2019-04-03T04:25:31.049Z,10.53
2019-04-03T04:28:39.528Z,10.68
2019-04-03T04:31:44.520Z,10.77
2019-04-03T04:34:51.442Z,10.78
2019-04-03T04:37:57.167Z,10.84
2019-04-03T04:41:03.885Z,10.93
2019-04-03T04:44:10.335Z,10.90
2019-04-03T04:47:16.103Z,10.79
2019-04-03T04:50:25.771Z,10.64
2019-04-03T04:53:31.818Z,10.28
2019-04-03T04:56:38.323Z,10.09
2019-04-03T04:59:45.168Z,10.00
2019-04-03T05:02:52.489Z,9.99
2019-04-03T05:05:58.645Z,9.87
2019-04-03T05:09:07.287Z,9.88
2019-04-03T05:12:13.296Z,10.51
2019-04-03T05:15:21.695Z,10.63
2019-04-03T05:18:28.608Z,10.76
2019-04-03T05:21:34.087Z,10.93
2019-04-03T05:24:40.130Z,11.38
2019-04-03T05:27:45.856Z,11.34
2019-04-03T05:30:51.607Z,11.11
2019-04-03T05:33:57.556Z,11.11
2019-04-03T05:37:03.288Z,11.36
2019-04-03T05:40:09.046Z,11.83
2019-04-03T05:43:14.931Z,12.02
2019-04-03T05:46:20.555Z,11.99
2019-04-03T05:49:26.243Z,12.03
2019-04-03T05:52:33.170Z,11.98
2019-04-03T05:55:41.081Z,12.07
2019-04-03T05:58:55.705Z,12.08
2019-04-03T06:01:54.254Z,12.27
2019-04-03T06:05:00.849Z,12.78
2019-04-03T06:08:06.572Z,13.05
2019-04-03T06:11:12.296Z,13.16
2019-04-03T06:14:18.759Z,13.45
2019-04-03T06:17:25.578Z,13.72
2019-04-03T06:20:31.293Z,13.47
2019-04-03T06:23:37.101Z,13.54
2019-04-03T06:26:44.588Z,13.84
2019-04-03T06:29:53.445Z,13.75
2019-04-03T06:33:00.920Z,14.13
2019-04-03T06:36:06.405Z,14.46
2019-04-03T06:39:12.156Z,14.67
2019-04-03T06:42:17.974Z,14.59
2019-04-03T06:45:25.461Z,14.57
2019-04-03T06:48:31.113Z,14.85
2019-04-03T06:51:36.914Z,14.60
2019-04-03T06:54:44.254Z,14.73
2019-04-03T06:57:50.170Z,15.09
2019-04-03T07:00:55.919Z,15.30
2019-04-03T07:04:01.697Z,15.12
2019-04-03T07:07:07.387Z,15.17
2019-04-03T07:10:24.068Z,15.43
2019-04-03T07:13:21.086Z,15.48
2019-04-03T07:16:28.560Z,14.81
2019-04-03T07:19:34.532Z,15.34
2019-04-03T07:22:40.344Z,16.03
2019-04-03T07:25:46.062Z,16.30
2019-04-03T07:28:51.717Z,16.32
2019-04-03T07:31:57.517Z,16.42
2019-04-03T07:35:08.951Z,16.25
2019-04-03T07:38:10.882Z,16.05
2019-04-03T07:41:16.594Z,16.38
2019-04-03T07:44:22.306Z,15.94
2019-04-03T07:47:29.325Z,16.68
2019-04-03T07:50:36.956Z,16.74
2019-04-03T07:53:42.478Z,16.82
2019-04-03T07:56:48.227Z,17.11
2019-04-03T07:59:54.154Z,17.26
2019-04-03T08:03:00.205Z,17.44
2019-04-03T08:06:06.230Z,17.27
2019-04-03T08:09:11.878Z,16.69
2019-04-03T08:12:18.487Z,17.16
2019-04-03T08:15:24.163Z,17.49
2019-04-03T08:18:29.944Z,17.87
2019-04-03T08:21:35.647Z,17.56
2019-04-03T08:24:41.373Z,17.77
2019-04-03T08:27:47.233Z,17.39
2019-04-03T08:30:52.962Z,16.61
2019-04-03T08:33:59.561Z,16.46
2019-04-03T08:37:09.609Z,15.78
2019-04-03T08:40:14.730Z,16.35
2019-04-03T08:43:20.454Z,16.69
2019-04-03T08:46:26.273Z,17.32
2019-04-03T08:49:31.938Z,18.05
2019-04-03T08:52:37.801Z,18.42
2019-04-03T08:55:45.371Z,18.22
2019-04-03T08:58:51.079Z,18.24
2019-04-03T09:01:57.187Z,17.36
2019-04-03T09:05:03.313Z,18.05
2019-04-03T09:08:09.082Z,17.50
2019-04-03T09:11:14.750Z,17.89
2019-04-03T09:14:20.463Z,15.96
2019-04-03T09:17:26.199Z,17.45
2019-04-03T09:20:34.693Z,17.71
2019-04-03T09:23:39.267Z,17.96
2019-04-03T09:26:45.282Z,18.18
2019-04-03T09:29:51.017Z,17.12
2019-04-03T09:32:59.477Z,17.20
2019-04-03T09:36:05.478Z,17.66
2019-04-03T09:39:13.934Z,17.76
2019-04-03T09:42:21.248Z,17.15
2019-04-03T09:45:28.622Z,17.85
2019-04-03T09:48:36.783Z,17.80
2019-04-03T09:51:43.344Z,18.10
2019-04-03T09:54:49.052Z,18.37
2019-04-03T09:57:54.753Z,18.70
2019-04-03T10:01:00.737Z,18.47
2019-04-03T10:04:06.844Z,18.46
2019-04-03T10:07:12.698Z,19.02
2019-04-03T10:10:18.767Z,19.00
2019-04-03T10:13:25.882Z,19.01
2019-04-03T10:16:33.247Z,18.99
2019-04-03T10:19:39.504Z,18.88
2019-04-03T10:22:45.332Z,18.98
2019-04-03T10:25:53.086Z,18.83
2019-04-03T10:28:58.579Z,18.85
2019-04-03T10:32:04.389Z,18.60
2019-04-03T10:35:10.759Z,18.70
2019-04-03T10:38:18.306Z,18.42
2019-04-03T10:41:24.115Z,18.92
2019-04-03T10:44:29.893Z,19.07
2019-04-03T10:47:42.686Z,19.17
2019-04-03T10:50:43.077Z,18.99
2019-04-03T10:53:50.996Z,18.89
2019-04-03T10:56:56.436Z,18.98
2019-04-03T11:00:02.440Z,19.02
2019-04-03T11:03:08.807Z,19.18
2019-04-03T11:06:14.829Z,19.41
2019-04-03T11:09:21.120Z,19.46
2019-04-03T11:12:26.944Z,19.39
2019-04-03T11:15:32.704Z,19.58
2019-04-03T11:18:38.371Z,19.58
2019-04-03T11:21:45.065Z,19.63
2019-04-03T11:24:51.378Z,19.81
2019-04-03T11:27:57.338Z,20.01
2019-04-03T11:31:03.202Z,19.65
2019-04-03T11:34:09.327Z,19.65
2019-04-03T11:37:15.142Z,19.36
2019-04-03T11:40:24.208Z,19.68
2019-04-03T11:43:31.047Z,19.76
2019-04-03T11:46:36.484Z,19.76
2019-04-03T11:49:42.297Z,19.48
2019-04-03T11:52:48.094Z,19.48
2019-04-03T11:55:54.256Z,19.20
2019-04-03T11:59:00.113Z,19.16
2019-04-03T12:02:07.861Z,19.44
2019-04-03T12:05:16.224Z,18.92
2019-04-03T12:08:21.797Z,18.94
2019-04-03T12:11:27.576Z,19.12
2019-04-03T12:14:33.262Z,19.12
2019-04-03T12:17:39.122Z,19.62
2019-04-03T12:20:45.958Z,19.69
2019-04-03T12:23:52.255Z,19.46
2019-04-03T12:26:57.960Z,19.38
2019-04-03T12:30:03.667Z,19.47
2019-04-03T12:33:09.351Z,19.67
2019-04-03T12:36:15.161Z,19.26
2019-04-03T12:39:28.063Z,19.43
2019-04-03T12:42:33.963Z,19.20
2019-04-03T12:45:39.627Z,19.20
2019-04-03T12:48:45.560Z,19.23
2019-04-03T12:51:51.327Z,19.44
2019-04-03T12:54:57.452Z,18.93
2019-04-03T12:58:04.709Z,19.03
2019-04-03T13:01:11.668Z,18.89
2019-04-03T13:04:18.517Z,18.96
2019-04-03T13:07:24.358Z,18.96
2019-04-03T13:10:41.354Z,18.60
2019-04-03T13:13:40.248Z,17.78
2019-04-03T13:16:47.031Z,18.42
2019-04-03T13:19:53.396Z,18.64
2019-04-03T13:22:59.407Z,18.76
2019-04-03T13:26:06.579Z,18.58
2019-04-03T13:29:12.381Z,18.30
2019-04-03T13:32:18.649Z,18.68
2019-04-03T13:35:24.556Z,18.83
2019-04-03T13:38:30.329Z,18.35
2019-04-03T13:41:36.006Z,18.69
2019-04-03T13:44:41.900Z,18.55
2019-04-03T13:47:47.753Z,18.58
2019-04-03T13:50:54.819Z,18.71
2019-04-03T13:54:01.134Z,18.46
2019-04-03T13:57:06.837Z,18.52
2019-04-03T14:00:20.682Z,18.26
2019-04-03T14:03:21.102Z,18.40
2019-04-03T14:06:26.844Z,18.72
2019-04-03T14:09:32.848Z,18.67
2019-04-03T14:12:43.286Z,18.61
2019-04-03T14:15:46.128Z,18.68
2019-04-03T14:18:52.161Z,18.41
2019-04-03T14:21:59.989Z,18.20
2019-04-03T14:25:18.081Z,18.34
2019-04-03T14:28:12.966Z,18.41
2019-04-03T14:31:19.138Z,18.08
2019-04-03T14:34:24.893Z,18.21
2019-04-03T14:37:30.591Z,18.20
2019-04-03T14:40:36.325Z,18.25
2019-04-03T14:43:42.760Z,18.32
2019-04-03T14:46:50.706Z,18.20
2019-04-03T14:49:56.497Z,18.09
2019-04-03T14:53:04.919Z,17.69
2019-04-03T14:56:10.651Z,17.91
2019-04-03T14:59:16.818Z,17.94
2019-04-03T15:02:23.867Z,17.58
2019-04-03T15:05:29.989Z,17.73
2019-04-03T15:08:37.039Z,17.86
2019-04-03T15:11:43.784Z,17.97
2019-04-03T15:14:49.505Z,17.77
2019-04-03T15:17:55.222Z,17.32
2019-04-03T15:21:01.039Z,17.45
2019-04-03T15:24:06.869Z,17.48
2019-04-03T15:27:12.537Z,17.55
2019-04-03T15:30:19.323Z,17.59
2019-04-03T15:33:25.169Z,17.71
2019-04-03T15:36:31.329Z,17.94
2019-04-03T15:39:37.291Z,17.62
2019-04-03T15:42:43.548Z,17.52
2019-04-03T15:45:49.333Z,17.33
2019-04-03T15:48:55.340Z,17.31
2019-04-03T15:52:01.553Z,17.29
2019-04-03T15:55:09.638Z,17.02
2019-04-03T15:58:15.367Z,16.70
2019-04-03T16:01:21.222Z,16.70
2019-04-03T16:04:29.013Z,16.58
2019-04-03T16:07:35.141Z,16.59
2019-04-03T16:10:40.851Z,16.69
2019-04-03T16:13:47.180Z,16.89
2019-04-03T16:16:54.017Z,16.74
2019-04-03T16:19:59.857Z,16.63
2019-04-03T16:23:05.829Z,16.69
2019-04-03T16:26:12.840Z,16.72
2019-04-03T16:29:18.734Z,16.46
2019-04-03T16:32:27.333Z,16.30
2019-04-03T16:35:32.382Z,16.43
2019-04-03T16:38:38.304Z,16.33
2019-04-03T16:41:45.190Z,16.37
2019-04-03T16:44:51.320Z,16.39
2019-04-03T16:47:56.994Z,16.10
2019-04-03T16:51:03.198Z,16.17
2019-04-03T16:54:11.883Z,16.08
2019-04-03T16:57:16.275Z,15.94
2019-04-03T17:00:22.187Z,15.76
2019-04-03T17:03:31.729Z,15.82
2019-04-03T17:06:35.358Z,15.57
2019-04-03T17:09:41.129Z,15.65
2019-04-03T17:12:49.562Z,15.62
2019-04-03T17:15:55.002Z,15.61
2019-04-03T17:19:00.855Z,15.33
2019-04-03T17:22:07.872Z,15.38
2019-04-03T17:25:15.095Z,15.19
2019-04-03T17:28:21.135Z,15.11
2019-04-03T17:31:26.973Z,15.04
2019-04-03T17:34:32.785Z,14.99
2019-04-03T17:37:38.580Z,15.03
2019-04-03T17:40:44.379Z,14.92
2019-04-03T17:43:50.247Z,14.88
2019-04-03T17:46:57.996Z,14.90
2019-04-03T17:50:06.204Z,14.72
2019-04-03T17:53:11.834Z,14.71
2019-04-03T17:56:17.873Z,14.72
2019-04-03T17:59:23.653Z,14.58
2019-04-03T18:02:29.681Z,14.48
2019-04-03T18:05:35.511Z,14.71
2019-04-03T18:08:41.255Z,14.67
2019-04-03T18:11:47.638Z,14.58
2019-04-03T18:14:53.367Z,14.64
2019-04-03T18:17:59.179Z,14.44
2019-04-03T18:21:05.099Z,14.43
2019-04-03T18:24:10.896Z,14.17
2019-04-03T18:27:16.679Z,13.92
2019-04-03T18:30:22.693Z,13.86
2019-04-03T18:33:28.654Z,13.47
2019-04-03T18:36:34.362Z,13.31
2019-04-03T18:39:41.345Z,13.09
2019-04-03T18:42:49.498Z,13.19
2019-04-03T18:45:56.150Z,13.23
2019-04-03T18:49:01.951Z,13.01
2019-04-03T18:52:08.588Z,13.06
2019-04-03T18:55:14.811Z,12.95
2019-04-03T18:58:22.346Z,12.90
2019-04-03T19:01:28.001Z,13.19
2019-04-03T19:04:33.743Z,13.07
2019-04-03T19:07:39.421Z,13.11
2019-04-03T19:10:45.091Z,12.81
2019-04-03T19:13:50.763Z,13.07
2019-04-03T19:16:56.442Z,13.10
2019-04-03T19:20:10.305Z,12.90
2019-04-03T19:23:11.073Z,12.85
2019-04-03T19:26:18.198Z,12.93
2019-04-03T19:29:24.012Z,13.03
2019-04-03T19:32:29.796Z,13.02
2019-04-03T19:35:35.959Z,13.11
2019-04-03T19:38:41.619Z,12.99
2019-04-03T19:41:47.287Z,12.98
2019-04-03T19:44:52.954Z,12.64
2019-04-03T19:47:58.688Z,12.84
2019-04-03T19:51:04.423Z,12.54
2019-04-03T19:54:10.143Z,12.33
2019-04-03T19:57:15.925Z,12.18
2019-04-03T20:00:21.914Z,12.28
2019-04-03T20:03:27.754Z,12.07
2019-04-03T20:06:33.452Z,12.10
2019-04-03T20:09:39.196Z,11.81
2019-04-03T20:12:47.762Z,11.79
2019-04-03T20:15:54.482Z,11.59
2019-04-03T20:19:00.963Z,12.02
2019-04-03T20:22:07.065Z,11.67
2019-04-03T20:25:15.089Z,11.58
2019-04-03T20:28:23.346Z,11.80
2019-04-03T20:31:28.510Z,11.76
2019-04-03T20:34:34.194Z,11.63
2019-04-03T20:37:39.915Z,11.76
2019-04-03T20:40:45.627Z,11.64
2019-04-03T20:43:51.377Z,11.21
2019-04-03T20:46:57.058Z,11.31
2019-04-03T20:50:02.714Z,11.30
2019-04-03T20:53:08.373Z,11.56
2019-04-03T20:56:14.062Z,11.28
2019-04-03T20:59:19.800Z,11.44
2019-04-03T21:02:25.583Z,10.88
2019-04-03T21:05:31.429Z,11.19
2019-04-03T21:08:37.085Z,10.98
2019-04-03T21:11:42.868Z,10.74
2019-04-03T21:14:48.529Z,10.33
2019-04-03T21:17:54.198Z,10.73
2019-04-03T21:21:01.372Z,10.94
2019-04-03T21:24:07.420Z,10.94
2019-04-03T21:27:13.185Z,11.12
2019-04-03T21:30:19.058Z,11.03
2019-04-03T21:33:24.710Z,11.04
2019-04-03T21:36:30.763Z,10.76
2019-04-03T21:39:36.463Z,10.62
2019-04-03T21:42:42.276Z,10.73
2019-04-03T21:45:48.053Z,10.80
2019-04-03T21:48:53.738Z,10.53
2019-04-03T21:52:00.496Z,10.77
2019-04-03T21:55:07.408Z,10.64
2019-04-03T21:58:13.100Z,10.49
2019-04-03T22:01:22.956Z,10.75
2019-04-03T22:04:28.600Z,10.86
2019-04-03T22:07:34.613Z,11.01
2019-04-03T22:10:40.498Z,10.79
2019-04-03T22:13:46.534Z,10.46
2019-04-03T22:16:52.414Z,10.41
2019-04-03T22:19:59.211Z,10.00
2019-04-03T22:23:05.553Z,10.19
2019-04-03T22:26:11.426Z,10.31
2019-04-03T22:29:19.737Z,10.62
2019-04-03T22:32:25.371Z,10.77
2019-04-03T22:35:32.276Z,10.63
2019-04-03T22:38:38.743Z,10.81
2019-04-03T22:41:44.606Z,10.45
2019-04-03T22:44:50.524Z,10.38
2019-04-03T22:47:56.837Z,10.05
2019-04-03T22:51:02.891Z,10.12
2019-04-03T22:54:08.774Z,10.20
2019-04-03T22:57:14.703Z,10.11
2019-04-03T23:00:20.638Z,9.73
2019-04-03T23:03:26.650Z,9.96
2019-04-03T23:06:32.524Z,10.05
2019-04-03T23:09:39.675Z,9.98
2019-04-03T23:12:45.561Z,9.84
2019-04-03T23:15:51.455Z,9.75
2019-04-03T23:18:57.474Z,9.76
2019-04-03T23:22:03.383Z,9.81
2019-04-03T23:25:09.330Z,9.94
2019-04-03T23:28:15.330Z,9.79
2019-04-03T23:31:21.230Z,10.16
2019-04-03T23:34:27.180Z,9.72
2019-04-03T23:37:33.069Z,10.18
2019-04-03T23:40:38.983Z,9.95
2019-04-03T23:43:45.008Z,9.99
2019-04-03T23:46:51.157Z,10.01
2019-04-03T23:49:57.013Z,9.85
2019-04-03T23:53:02.989Z,9.93
2019-04-03T23:56:08.971Z,10.01
2019-04-03T23:59:14.844Z,9.32
